Time;durP1;ratioP1;P1;durP2;ratioP2;P2;SDS_P1;SDS_P2;PMS_P1;PMS_P2;Temp;Humidity;BMP_temperature;BMP_pressure;BME280_temperature;BME280_humidity;BME280_pressure;Samples;Min_cycle;Max_cycle;Signal;HPM_P1;HPM_P2
2022/02/19 00:00:10;;;;;;;15.47;11.13;;;;;;;2.28;73.85;99681.34;1671709;84;21495;-60
2022/02/19 00:02:40;;;;;;;19.77;13.57;;;;;;;1.78;74.20;99603.00;1662466;84;21030;-61
2022/02/19 00:05:08;;;;;;;22.63;13.90;;;;;;;2.08;74.48;99670.64;1666256;84;21067;-59
2022/02/19 00:07:36;;;;;;;18.30;14.37;;;;;;;1.99;74.75;99682.86;1671555;84;21062;-60
2022/02/19 00:10:04;;;;;;;20.50;15.13;;;;;;;1.98;75.02;99677.75;1672788;84;21015;-61
2022/02/19 00:12:31;;;;;;;23.73;14.50;;;;;;;2.03;74.88;99680.77;1672130;84;21047;-60
2022/02/19 00:14:58;;;;;;;18.57;13.00;;;;;;;2.07;74.78;99681.65;1654718;84;21054;-59
2022/02/19 00:17:24;;;;;;;20.82;13.62;;;;;;;2.08;74.84;99682.47;1671815;84;21138;-61
2022/02/19 00:19:53;;;;;;;19.52;13.60;;;;;;;2.03;75.00;99680.27;1671820;84;21114;-59
2022/02/19 00:22:20;;;;;;;21.10;13.93;;;;;;;1.98;75.12;99676.44;1671941;84;21554;-62
2022/02/19 00:24:46;;;;;;;;;;;;;;;1.93;75.22;99679.52;1674222;84;21696;-59
2022/02/19 00:27:12;;;;;;;18.17;12.63;;;;;;;1.89;75.16;99671.60;1661383;84;20102;-59
2022/02/19 00:29:38;;;;;;;17.87;12.60;;;;;;;1.88;75.37;99673.87;1670798;84;21630;-60
2022/02/19 00:32:07;;;;;;;19.17;11.20;;;;;;;1.87;75.37;99666.98;1670007;84;21082;-60
2022/02/19 00:34:34;;;;;;;17.10;11.00;;;;;;;1.81;75.45;99661.83;1662127;84;20976;-59
2022/02/19 00:37:02;;;;;;;15.00;11.73;;;;;;;1.73;75.83;99661.73;1658590;84;21293;-60
2022/02/19 00:39:29;;;;;;;16.20;11.33;;;;;;;1.67;76.08;99655.27;1667210;84;20991;-60
2022/02/19 00:41:58;;;;;;;15.35;11.22;;;;;;;1.69;76.09;99652.00;1673051;84;21063;-60
2022/02/19 00:44:27;;;;;;;19.20;13.13;;;;;;;1.69;76.12;99642.80;1667552;84;21019;-58
2022/02/19 00:46:56;;;;;;;20.67;12.20;;;;;;;1.64;76.29;99627.14;1671943;84;21109;-60
2022/02/19 00:49:23;;;;;;;18.93;11.43;;;;;;;1.55;76.61;99627.56;1671038;84;21551;-60
2022/02/19 00:51:50;;;;;;;24.03;12.47;;;;;;;1.50;76.67;99627.17;1644723;84;21087;-60
2022/02/19 00:54:17;;;;;;;;;;;;;;;1.53;76.80;99613.75;1663176;84;20999;-61
2022/02/19 00:56:43;;;;;;;13.40;10.00;;;;;;;1.53;76.90;99613.75;1661902;83;20141;-60
2022/02/19 00:59:10;;;;;;;17.65;11.15;;;;;;;1.48;76.99;99604.17;1659056;85;21010;-60
2022/02/19 01:01:39;;;;;;;17.60;11.23;;;;;;;1.39;77.41;99606.36;1657106;85;21066;-60
2022/02/19 01:04:07;;;;;;;16.53;10.10;;;;;;;1.28;77.88;99600.35;1654976;85;21371;-60
2022/02/19 01:06:33;;;;;;;15.85;10.48;;;;;;;1.24;78.13;99591.58;1657486;85;21489;-60
2022/02/19 01:09:01;;;;;;;15.93;10.10;;;;;;;1.23;78.43;99592.08;1669245;85;21676;-58
2022/02/19 01:11:27;;;;;;;17.35;10.23;;;;;;;1.20;78.53;99591.05;1659803;85;21082;-60
2022/02/19 01:13:53;;;;;;;14.98;10.68;;;;;;;1.23;78.49;99595.20;1646218;85;20993;-59
2022/02/19 01:16:19;;;;;;;19.12;10.78;;;;;;;1.22;78.36;99603.53;1654992;85;21084;-59
2022/02/19 01:18:49;;;;;;;12.57;9.07;;;;;;;1.18;78.67;99589.05;1654927;85;21187;-59
2022/02/19 01:21:18;;;;;;;13.17;8.30;;;;;;;1.19;78.72;99601.22;1658899;85;21036;-59
2022/02/19 01:23:45;;;;;;;15.00;8.10;;;;;;;1.27;78.47;99594.75;1658483;83;21182;-59
2022/02/19 01:26:12;;;;;;;9.17;7.53;;;;;;;1.26;78.50;99582.61;1663967;85;21593;-59
2022/02/19 01:28:40;;;;;;;16.33;8.23;;;;;;;1.26;78.49;99583.92;1657654;85;21132;-59
2022/02/19 01:31:08;;;;;;;11.77;7.80;;;;;;;1.22;78.56;99575.16;1659927;85;21075;-59
2022/02/19 01:33:34;;;;;;;12.85;6.85;;;;;;;1.14;78.87;99567.52;1639053;85;21048;-59
2022/02/19 01:36:01;;;;;;;9.35;6.10;;;;;;;1.13;78.98;99556.70;1677116;84;21145;-59
2022/02/19 01:38:29;;;;;;;9.70;6.80;;;;;;;1.20;78.83;99551.67;1681555;84;21514;-59
2022/02/19 01:40:58;;;;;;;13.57;7.80;;;;;;;1.24;78.68;99557.45;1685747;84;21041;-59
2022/02/19 01:43:24;;;;;;;10.90;7.10;;;;;;;1.18;78.82;99544.92;1685875;84;21585;-60
2022/02/19 01:45:50;;;;;;;11.97;7.22;;;;;;;1.13;78.89;99544.88;1681204;84;21054;-60
2022/02/19 01:48:19;;;;;;;;;;;;;;;1.08;79.11;99541.05;1647829;85;21572;-58
2022/02/19 01:50:46;;;;;;;;;;;;;;;1.12;79.17;99547.65;1646036;86;20166;-60
2022/02/19 01:53:13;;;;;;;11.35;7.17;;;;;;;0.64;79.43;99471.31;1642019;86;20236;-59
2022/02/19 01:55:40;;;;;;;9.10;7.00;;;;;;;1.06;79.41;99541.69;1644600;86;21004;-59
2022/02/19 01:58:12;;;;;;;11.70;6.73;;;;;;;1.09;79.37;99543.53;1641011;86;21596;-59
2022/02/19 02:00:55;;;;;;;12.27;6.73;;;;;;;1.10;79.37;99546.97;1634147;87;21561;-59
2022/02/19 02:03:23;;;;;;;11.60;6.60;;;;;;;1.09;79.31;99550.56;1639793;87;21594;-59
2022/02/19 02:05:52;;;;;;;10.23;6.97;;;;;;;1.19;79.02;99546.56;1629317;86;21067;-58
2022/02/19 02:08:20;;;;;;;13.33;7.43;;;;;;;1.24;78.80;99537.27;1633230;86;21069;-60
2022/02/19 02:10:47;;;;;;;12.00;7.27;;;;;;;1.22;78.59;99536.59;1639510;86;21055;-60
2022/02/19 02:13:16;;;;;;;10.73;7.37;;;;;;;1.16;78.76;99526.69;1636215;84;21152;-60
2022/02/19 02:15:43;;;;;;;12.77;7.50;;;;;;;1.15;78.78;99536.87;1633754;86;21040;-59
2022/02/19 02:18:13;;;;;;;10.30;7.53;;;;;;;1.19;78.61;99532.97;1641756;86;21158;-59
2022/02/19 02:20:41;;;;;;;11.30;8.57;;;;;;;1.23;78.49;99530.38;1643707;86;21047;-59
2022/02/19 02:23:08;;;;;;;;;;;;;;;1.23;78.56;99547.45;1646412;84;21099;-59
2022/02/19 02:25:34;;;;;;;13.80;8.13;;;;;;;1.16;78.57;99535.87;1631530;86;20148;-58
2022/02/19 02:28:04;;;;;;;13.10;8.33;;;;;;;1.11;78.62;99530.23;1643236;87;21116;-59
2022/02/19 02:30:32;;;;;;;12.17;7.83;;;;;;;1.19;78.55;99546.09;1634852;86;21073;-60
2022/02/19 02:33:10;;;;;;;9.70;6.20;;;;;;;1.30;78.28;99544.58;1642093;87;21543;-58
2022/02/19 02:35:39;;;;;;;13.03;7.53;;;;;;;1.33;77.98;99547.38;1638996;86;21052;-59
2022/02/19 02:38:08;;;;;;;10.77;7.43;;;;;;;1.25;78.06;99549.44;1641698;86;21044;-60
2022/02/19 02:40:36;;;;;;;12.63;7.00;;;;;;;1.24;78.03;99552.20;1642905;87;21023;-61
2022/02/19 02:43:05;;;;;;;9.33;7.10;;;;;;;1.29;77.91;99548.16;1640541;86;21094;-59
2022/02/19 02:45:32;;;;;;;14.77;7.80;;;;;;;1.36;77.50;99545.29;1625762;86;21031;-59
2022/02/19 02:47:58;;;;;;;16.20;9.18;;;;;;;0.97;77.28;99482.52;1631248;86;21542;-61
2022/02/19 02:50:26;;;;;;;11.47;7.97;;;;;;;1.35;77.37;99529.18;1625846;86;21074;-59
2022/02/19 02:52:54;;;;;;;11.50;8.03;;;;;;;1.39;77.27;99524.46;1629961;87;21071;-60
2022/02/19 02:55:21;;;;;;;8.95;6.80;;;;;;;1.48;76.87;99515.69;1634734;85;21162;-58
2022/02/19 02:57:47;;;;;;;12.82;7.97;;;;;;;1.58;76.53;99510.36;1647098;85;21043;-59
2022/02/19 03:00:17;;;;;;;13.80;7.37;;;;;;;1.55;76.05;99510.67;1650662;85;21166;-59
2022/02/19 03:02:44;;;;;;;12.87;8.13;;;;;;;1.53;76.16;99508.19;1650254;85;21353;-59
2022/02/19 03:05:13;;;;;;;9.93;7.10;;;;;;;1.49;76.12;99513.41;1650388;87;21038;-59
2022/02/19 03:07:41;;;;;;;9.50;6.33;;;;;;;1.60;76.10;99503.64;1647930;86;21115;-60
2022/02/19 03:10:09;;;;;;;8.53;6.10;;;;;;;1.68;75.80;99503.73;1647921;85;21062;-58
2022/02/19 03:12:37;;;;;;;7.80;6.47;;;;;;;1.68;75.30;99495.36;1650825;85;21058;-58
2022/02/19 03:15:06;;;;;;;13.53;6.90;;;;;;;1.64;75.26;99487.91;1650300;85;21809;-60
2022/02/19 03:17:37;;;;;;;9.37;5.17;;;;;;;1.62;75.09;99482.84;1650942;85;21158;-59
2022/02/19 03:20:06;;;;;;;9.63;6.10;;;;;;;1.71;74.98;99481.08;1647767;85;21183;-59
2022/02/19 03:22:32;;;;;;;12.03;6.20;;;;;;;1.80;74.53;99476.72;1651110;86;21020;-58
2022/02/19 03:25:01;;;;;;;12.63;5.70;;;;;;;1.78;74.32;99470.30;1589055;85;21062;-58
2022/02/19 03:27:28;;;;;;;11.00;6.30;;;;;;;1.78;74.17;99466.36;1643434;85;21056;-58
2022/02/19 03:29:56;;;;;;;8.73;5.87;;;;;;;1.83;73.91;99458.85;1648836;85;21052;-58
2022/02/19 03:32:22;;;;;;;8.15;4.67;;;;;;;1.90;73.73;99458.58;1650718;85;21043;-58
2022/02/19 03:34:49;;;;;;;;;;;;;;;1.92;73.54;99451.36;1641422;85;21507;-60
2022/02/19 03:37:15;;;;;;;9.20;5.57;;;;;;;1.92;73.55;99453.14;1650101;85;20202;-59
2022/02/19 03:39:41;;;;;;;7.08;4.28;;;;;;;1.85;73.78;99449.01;1650619;86;21042;-59
2022/02/19 03:42:08;;;;;;;6.55;5.83;;;;;;;1.92;73.55;99454.45;1649419;85;21154;-59
2022/02/19 03:44:34;;;;;;;7.90;4.53;;;;;;;1.98;72.96;99438.56;1647337;85;21019;-59
2022/02/19 03:47:03;;;;;;;8.40;5.07;;;;;;;2.01;72.41;99441.70;1641750;85;21008;-59
2022/02/19 03:49:34;;;;;;;11.10;5.23;;;;;;;2.03;72.45;99431.86;1642472;87;21063;-59
2022/02/19 03:52:02;;;;;;;11.97;4.60;;;;;;;2.07;72.16;99435.85;1640789;87;21039;-59
2022/02/19 03:54:29;;;;;;;10.67;6.03;;;;;;;2.13;72.12;99433.09;1644285;85;21126;-59
2022/02/19 03:56:56;;;;;;;8.20;4.43;;;;;;;2.19;71.87;99421.13;1651022;87;20937;-59
2022/02/19 03:59:22;;;;;;;8.23;4.37;;;;;;;2.24;71.19;99422.77;1650717;85;21062;-59
2022/02/19 04:01:50;;;;;;;6.00;5.27;;;;;;;2.31;70.93;99422.48;1649474;85;21007;-59
2022/02/19 04:04:18;;;;;;;9.53;4.70;;;;;;;2.38;70.85;99426.13;1642210;87;21033;-59
2022/02/19 04:06:46;;;;;;;11.20;4.70;;;;;;;2.38;70.49;99411.67;1650859;85;21060;-59
2022/02/19 04:09:13;;;;;;;10.23;4.60;;;;;;;2.43;69.74;99409.87;1648363;86;21012;-59
2022/02/19 04:11:42;;;;;;;8.80;5.30;;;;;;;2.45;69.50;99404.80;1639869;85;21511;-59
2022/02/19 04:14:09;;;;;;;6.67;4.27;;;;;;;2.53;69.27;99398.73;1650355;85;21491;-59
2022/02/19 04:16:41;;;;;;;9.10;4.63;;;;;;;2.57;68.69;99388.73;1645384;85;21059;-59
2022/02/19 04:19:07;;;;;;;5.08;3.62;;;;;;;2.65;68.18;99399.27;1642910;85;21111;-59
2022/02/19 04:21:34;;;;;;;4.62;3.77;;;;;;;2.65;67.86;99401.89;1646255;85;21106;-59
2022/02/19 04:24:02;;;;;;;7.20;4.37;;;;;;;2.71;67.60;99409.14;1645742;85;21060;-59
2022/02/19 04:26:29;;;;;;;4.37;3.17;;;;;;;2.75;67.57;99396.02;1647939;85;21545;-58
2022/02/19 04:28:55;;;;;;;11.50;3.40;;;;;;;2.80;67.08;99400.28;1648844;85;21078;-57
2022/02/19 04:31:27;;;;;;;7.30;2.97;;;;;;;2.81;66.50;99388.78;1645662;85;21059;-59
2022/02/19 04:33:55;;;;;;;8.57;4.33;;;;;;;2.87;66.31;99390.77;1648074;87;21004;-59
2022/02/19 04:36:21;;;;;;;6.53;4.17;;;;;;;2.93;66.33;99389.30;1643928;85;21049;-60
2022/02/19 04:38:48;;;;;;;7.13;4.27;;;;;;;2.95;65.97;99368.08;1584569;89;21594;-58
2022/02/19 04:41:14;;;;;;;6.85;3.33;;;;;;;2.96;65.50;99357.86;1614587;87;21548;-59
2022/02/19 04:43:40;;;;;;;4.55;2.52;;;;;;;3.06;65.79;99355.91;1607877;87;21062;-57
2022/02/19 04:46:08;;;;;;;5.73;3.77;;;;;;;3.06;65.05;99349.33;1644879;85;22132;-58
2022/02/19 04:48:35;;;;;;;8.08;3.60;;;;;;;3.06;65.07;99346.70;1644731;86;21571;-58
2022/02/19 04:51:01;;;;;;;10.78;5.78;;;;;;;3.04;64.87;99342.91;1644636;86;21130;-58
2022/02/19 04:53:27;;;;;;;;;;;;;;;3.07;64.87;99347.85;1649652;86;21131;-58
2022/02/19 04:55:54;;;;;;;4.53;3.40;;;;;;;3.10;64.92;99361.17;1640902;85;20569;-59
2022/02/19 04:58:22;;;;;;;9.40;3.70;;;;;;;3.04;64.96;99356.57;1672403;85;21027;-60
2022/02/19 05:00:48;;;;;;;4.60;3.17;;;;;;;3.04;64.72;99370.55;1670921;85;21059;-58
2022/02/19 05:03:20;;;;;;;8.70;3.97;;;;;;;3.06;64.78;99367.26;1673991;84;21363;-58
2022/02/19 05:05:52;;;;;;;11.53;4.17;;;;;;;3.03;64.74;99356.23;1652183;85;21540;-58
2022/02/19 05:08:19;;;;;;;;;;;;;;;3.14;64.68;99369.06;1678500;85;21485;-57
2022/02/19 05:10:46;;;;;;;8.28;3.98;;;;;;;3.16;64.66;99353.11;1674031;85;20164;-58
2022/02/19 05:13:16;;;;;;;8.00;4.37;;;;;;;3.15;64.55;99343.08;1674555;85;21062;-59
2022/02/19 05:15:43;;;;;;;9.33;4.13;;;;;;;3.14;64.32;99324.80;1676193;85;20989;-57
2022/02/19 05:18:14;;;;;;;8.53;4.17;;;;;;;3.17;64.28;99310.00;1673487;85;21079;-57
2022/02/19 05:20:43;;;;;;;4.47;3.63;;;;;;;3.16;63.95;99322.33;1674557;85;21078;-58
2022/02/19 05:23:10;;;;;;;7.27;4.30;;;;;;;3.19;63.89;99309.34;1675828;84;21054;-58
2022/02/19 05:25:40;;;;;;;;;;;;;;;3.21;63.80;99316.58;1679354;85;21102;-60
2022/02/19 05:28:08;;;;;;;6.83;3.67;;;;;;;3.20;63.35;99314.45;1675051;85;20455;-58
2022/02/19 05:30:36;;;;;;;7.10;3.67;;;;;;;3.24;63.50;99314.91;1676022;85;21562;-57
2022/02/19 05:33:21;;;;;;;3.43;2.30;;;;;;;3.24;63.30;99321.02;1675716;84;21051;-58
2022/02/19 05:35:48;;;;;;;5.27;2.93;;;;;;;3.26;63.20;99317.73;1674832;84;21606;-58
2022/02/19 05:38:15;;;;;;;8.30;4.20;;;;;;;3.28;63.09;99300.45;1669197;85;21544;-57
2022/02/19 05:40:42;;;;;;;6.90;3.30;;;;;;;3.27;63.01;99295.66;1663655;85;21570;-58
2022/02/19 05:43:09;;;;;;;3.58;2.92;;;;;;;3.31;62.95;99296.98;1662688;85;21069;-57
2022/02/19 05:45:35;;;;;;;6.12;3.80;;;;;;;3.34;62.99;99289.23;1671307;85;21007;-58
2022/02/19 05:48:03;;;;;;;5.00;3.77;;;;;;;3.38;62.68;99310.80;1668815;85;20996;-58
2022/02/19 05:50:32;;;;;;;15.60;3.80;;;;;;;3.40;62.64;99320.17;1669156;85;21084;-57
2022/02/19 05:53:06;;;;;;;7.73;3.57;;;;;;;3.38;62.50;99320.83;1668558;85;21018;-57
2022/02/19 05:55:35;;;;;;;6.37;3.37;;;;;;;3.40;62.26;99347.02;1661305;85;21274;-58
2022/02/19 05:58:03;;;;;;;7.30;3.33;;;;;;;3.43;62.13;99317.72;1673364;85;21535;-60
2022/02/19 06:00:29;;;;;;;8.90;3.70;;;;;;;3.48;61.98;99324.60;1672953;85;21019;-57
2022/02/19 06:02:55;;;;;;;4.30;3.12;;;;;;;3.53;62.04;99320.98;1673521;85;21027;-58
2022/02/19 06:05:21;;;;;;;4.78;2.42;;;;;;;3.54;62.60;99340.23;1670934;85;21483;-59
2022/02/19 06:07:49;;;;;;;4.40;3.07;;;;;;;3.48;63.76;99324.60;1666052;85;21546;-57
2022/02/19 06:10:16;;;;;;;4.60;2.70;;;;;;;3.46;65.14;99330.53;1673685;85;21995;-59
2022/02/19 06:12:44;;;;;;;5.93;3.97;;;;;;;3.39;66.32;99346.20;1681002;84;21003;-58
2022/02/19 06:15:12;;;;;;;4.53;2.53;;;;;;;3.30;67.81;99351.14;1675622;85;21133;-58
2022/02/19 06:17:41;;;;;;;5.07;3.40;;;;;;;3.27;69.18;99344.87;1675171;84;21111;-58
2022/02/19 06:20:09;;;;;;;5.50;2.72;;;;;;;3.26;69.94;99345.38;1674558;84;21068;-56
2022/02/19 06:22:37;;;;;;;3.97;2.40;;;;;;;3.23;70.63;99344.89;1676088;84;21038;-58
2022/02/19 06:25:05;;;;;;;6.67;2.95;;;;;;;3.07;72.34;99358.86;1676009;85;21079;-58
2022/02/19 06:27:39;;;;;;;3.53;3.13;;;;;;;2.96;73.16;99355.23;1674723;85;21552;-63
2022/02/19 06:30:10;;;;;;;4.30;2.70;;;;;;;2.95;73.84;99364.12;1675396;85;21043;-63
2022/02/19 06:35:46;;;;;;;12.70;3.97;;;;;;;2.73;76.51;99308.48;1784552;78;22419;-62
2022/02/19 06:38:14;;;;;;;7.00;3.90;;;;;;;2.63;77.18;99315.72;1773879;80;21092;-63
2022/02/19 06:40:40;;;;;;;5.25;4.00;;;;;;;2.59;77.30;99303.88;1756676;80;21220;-60
2022/02/19 06:43:06;;;;;;;;;;;;;;;2.56;77.70;99297.12;1768133;80;21044;-58
2022/02/19 06:45:34;;;;;;;7.55;3.30;;;;;;;2.57;77.55;99297.46;1761178;79;20133;-59
2022/02/19 06:48:00;;;;;;;5.03;3.83;;;;;;;2.48;77.92;99282.15;1759130;80;21025;-61
2022/02/19 06:50:27;;;;;;;5.08;2.60;;;;;;;2.49;77.70;99302.22;1772211;80;20986;-58
2022/02/19 06:52:55;;;;;;;5.67;3.40;;;;;;;2.60;77.22;99290.58;1749002;80;21505;-59
2022/02/19 06:55:23;;;;;;;3.93;2.97;;;;;;;2.69;76.57;99284.34;1713845;81;21548;-59
2022/02/19 06:57:50;;;;;;;4.70;3.03;;;;;;;2.75;75.57;99281.55;1676199;84;21043;-58
2022/02/19 07:00:19;;;;;;;5.87;3.20;;;;;;;2.73;75.00;99259.80;1671249;84;21051;-60
2022/02/19 07:02:49;;;;;;;5.50;3.53;;;;;;;2.81;74.13;99261.64;1674132;84;21007;-59
2022/02/19 07:05:16;;;;;;;6.37;3.47;;;;;;;2.89;73.34;99244.02;1672730;83;21019;-62
2022/02/19 07:07:48;;;;;;;6.37;3.07;;;;;;;2.98;71.86;99238.77;1688163;83;21484;-59
2022/02/19 07:10:15;;;;;;;6.17;4.12;;;;;;;3.04;71.24;99211.27;1644558;85;21023;-61
2022/02/19 07:12:44;;;;;;;6.40;3.70;;;;;;;3.05;70.66;99222.61;1631694;85;21032;-60
2022/02/19 07:15:12;;;;;;;7.90;3.87;;;;;;;3.06;69.58;99200.07;1698606;83;21115;-59
2022/02/19 07:17:52;;;;;;;6.27;3.83;;;;;;;3.14;68.52;99199.73;1689537;83;21035;-60
2022/02/19 07:20:21;;;;;;;5.37;3.17;;;;;;;3.30;68.08;99217.63;1682157;83;21032;-59
2022/02/19 07:22:50;;;;;;;5.93;3.43;;;;;;;3.38;67.51;99202.80;1687870;81;21009;-59
2022/02/19 07:25:21;;;;;;;3.37;3.03;;;;;;;3.42;66.23;99185.16;1715892;82;20988;-59
2022/02/19 07:27:47;;;;;;;5.60;3.33;;;;;;;3.50;65.55;99180.34;1690802;82;21132;-59
2022/02/19 07:30:18;;;;;;;6.80;2.92;;;;;;;3.56;64.58;99181.48;1690113;82;21322;-61
2022/02/19 07:32:47;;;;;;;5.30;2.80;;;;;;;3.60;64.13;99174.87;1734837;81;21585;-62
2022/02/19 07:35:15;;;;;;;3.67;2.53;;;;;;;3.65;63.65;99173.36;1741101;78;21559;-62
2022/02/19 07:37:42;;;;;;;3.33;2.75;;;;;;;3.69;62.98;99167.25;1743202;81;22114;-61
2022/02/19 07:40:08;;;;;;;6.08;2.47;;;;;;;3.76;62.78;99162.13;1744610;81;21987;-62
2022/02/19 07:42:38;;;;;;;4.07;1.93;;;;;;;3.82;62.29;99185.95;1695581;82;21490;-61
2022/02/19 07:45:24;;;;;;;5.87;2.60;;;;;;;3.85;61.56;99201.44;1744364;81;21072;-61
2022/02/19 07:48:12;;;;;;;3.90;2.33;;;;;;;3.88;61.48;99193.67;1744997;81;20969;-62
2022/02/19 07:58:58;;;;;;;4.57;2.90;;;;;;;4.02;60.93;99186.35;1721591;81;21064;-63
2022/02/19 08:01:24;;;;;;;4.17;2.95;;;;;;;4.06;60.69;99191.59;1729643;81;21023;-64
2022/02/19 08:03:51;;;;;;;4.53;3.23;;;;;;;4.11;60.49;99185.81;1727721;81;21560;-62
2022/02/19 08:06:17;;;;;;;6.83;3.55;;;;;;;4.17;60.50;99205.39;1728471;81;21053;-66
2022/02/19 08:08:45;;;;;;;7.27;3.37;;;;;;;4.21;60.53;99186.39;1701313;83;21080;-71
2022/02/19 08:11:16;;;;;;;6.97;3.17;;;;;;;4.25;59.78;99215.37;1713128;83;21017;-76
2022/02/19 08:13:43;;;;;;;4.67;3.12;;;;;;;4.26;59.84;99218.35;1683704;84;21010;-76
2022/02/19 08:16:10;;;;;;;5.80;2.97;;;;;;;4.34;59.73;99228.53;1684410;84;21054;-75
2022/02/19 08:18:37;;;;;;;3.33;2.02;;;;;;;4.39;59.43;99211.66;1676094;84;21188;-66
2022/02/19 08:21:06;;;;;;;5.53;2.27;;;;;;;4.45;59.21;99202.55;1675070;85;21026;-74
2022/02/19 08:23:33;;;;;;;2.73;2.23;;;;;;;4.49;60.31;99207.80;1704842;83;21024;-77
2022/02/19 08:25:59;;;;;;;;;;;;;;;4.55;60.05;99203.63;1714875;82;21103;-74
2022/02/19 08:28:26;;;;;;;5.90;2.43;;;;;;;4.56;60.22;99192.56;1732296;82;20160;-74
2022/02/19 08:30:54;;;;;;;5.77;2.63;;;;;;;4.54;60.52;99201.16;1727464;82;21031;-74
2022/02/19 08:33:20;;;;;;;4.83;2.22;;;;;;;4.57;60.63;99211.38;1720401;83;20960;-77
2022/02/19 08:35:47;;;;;;;5.47;3.43;;;;;;;4.59;60.23;99219.93;1711091;82;21521;-73
2022/02/19 08:38:13;;;;;;;7.33;3.17;;;;;;;4.62;60.29;99198.47;1708754;82;21593;-75
2022/02/19 08:40:41;;;;;;;4.25;3.30;;;;;;;4.66;60.52;99199.75;1702854;83;21628;-79
2022/02/19 08:43:08;;;;;;;5.57;2.60;;;;;;;4.66;60.11;99191.84;1710962;82;21119;-74
2022/02/19 08:45:35;;;;;;;6.37;2.90;;;;;;;4.67;60.09;99163.10;1726498;81;21140;-77
2022/02/19 08:48:04;;;;;;;;;;;;;;;4.65;60.04;99165.95;1738616;81;21641;-77
2022/02/19 08:50:35;;;;;;;5.67;2.83;;;;;;;4.66;59.84;99158.84;1729253;81;20148;-76
2022/02/19 08:53:03;;;;;;;11.83;3.30;;;;;;;4.62;59.84;99165.48;1744371;81;21074;-73
2022/02/19 08:55:30;;;;;;;3.93;2.77;;;;;;;4.67;59.74;99162.63;1743813;81;21097;-78
2022/02/19 08:57:57;;;;;;;6.27;3.90;;;;;;;4.72;59.68;99170.50;1742089;81;21070;-78
2022/02/19 09:00:24;;;;;;;;;;;;;;;4.74;59.48;99158.75;1730712;81;21997;-73
2022/02/19 09:02:50;;;;;;;6.60;3.83;;;;;;;4.74;59.47;99179.88;1734311;81;20157;-78
2022/02/19 09:05:18;;;;;;;5.90;3.52;;;;;;;4.70;59.87;99165.39;1730011;81;20978;-76
2022/02/19 09:07:44;;;;;;;5.00;3.30;;;;;;;4.75;59.80;99178.08;1725317;82;21086;-77
2022/02/19 09:10:15;;;;;;;6.77;3.50;;;;;;;4.73;60.01;99162.89;1724811;81;21589;-76
2022/02/19 09:12:49;;;;;;;5.90;2.77;;;;;;;4.74;59.69;99170.63;1730629;82;21532;-77
2022/02/19 09:15:22;;;;;;;4.13;2.87;;;;;;;4.74;59.65;99190.94;1718712;82;21109;-76
2022/02/19 09:17:51;;;;;;;6.97;3.10;;;;;;;4.76;59.98;99167.31;1715822;82;21527;-74
2022/02/19 09:20:21;;;;;;;4.07;3.60;;;;;;;4.75;59.79;99166.20;1724642;82;22281;-76
2022/02/19 09:22:47;;;;;;;3.57;2.63;;;;;;;4.73;59.82;99163.73;1726203;81;21057;-78
2022/02/19 09:25:15;;;;;;;3.37;2.57;;;;;;;4.71;59.64;99197.41;1735673;82;21151;-77
2022/02/19 09:27:42;;;;;;;4.00;2.43;;;;;;;4.70;59.95;99183.06;1734799;81;21105;-75
2022/02/19 09:30:11;;;;;;;4.63;2.97;;;;;;;4.67;60.07;99181.58;1743124;82;21533;-75
2022/02/19 09:32:38;;;;;;;6.40;2.90;;;;;;;4.69;60.03;99188.85;1731687;81;21037;-71
2022/02/19 09:35:06;;;;;;;4.43;2.80;;;;;;;4.68;60.16;99175.31;1739111;81;21068;-75
2022/02/19 09:37:35;;;;;;;14.77;3.90;;;;;;;4.68;60.27;99191.97;1690859;82;21514;-77
2022/02/19 09:40:04;;;;;;;2.80;2.25;;;;;;;4.68;60.20;99187.20;1735029;81;21034;-73
2022/02/19 09:42:31;;;;;;;3.13;2.60;;;;;;;4.68;60.33;99192.47;1670031;84;21118;-78
2022/02/19 09:44:59;;;;;;;4.03;3.30;;;;;;;4.68;60.31;99193.80;1726006;81;21025;-77
2022/02/19 09:47:28;;;;;;;4.60;3.03;;;;;;;4.71;60.51;99176.29;1701663;82;21073;-75
2022/02/19 09:49:56;;;;;;;7.90;3.20;;;;;;;4.70;60.52;99170.67;1712450;82;21033;-78
2022/02/19 09:52:24;;;;;;;5.60;2.93;;;;;;;4.73;60.64;99125.93;1664587;84;21053;-80
2022/02/19 09:54:52;;;;;;;6.13;3.40;;;;;;;4.72;60.69;99128.27;1665873;84;21136;-75
2022/02/19 09:57:19;;;;;;;5.30;2.87;;;;;;;4.70;60.52;99119.20;1737451;81;21002;-70
2022/02/19 09:59:45;;;;;;;6.00;2.60;;;;;;;4.75;60.77;99061.41;1719291;82;21145;-76
2022/02/19 10:02:11;;;;;;;9.08;3.58;;;;;;;4.83;60.89;99110.66;1742407;81;21083;-78
2022/02/19 10:04:43;;;;;;;8.18;3.83;;;;;;;4.85;60.46;99104.19;1739305;81;21387;-78
2022/02/19 10:07:17;;;;;;;5.77;3.87;;;;;;;4.95;60.71;99084.63;1724423;81;21096;-79
2022/02/19 10:09:50;;;;;;;8.47;3.33;;;;;;;5.02;60.95;99096.09;1724223;81;21010;-77
2022/02/19 10:12:17;;;;;;;6.80;4.83;;;;;;;5.10;60.46;99122.41;1709286;81;21094;-77
2022/02/19 10:14:46;;;;;;;5.20;3.83;;;;;;;5.18;60.65;99133.38;1687074;83;21043;-77
2022/02/19 10:17:23;;;;;;;9.00;5.10;;;;;;;5.23;60.47;99117.30;1700487;82;21003;-77
2022/02/19 10:19:57;;;;;;;8.00;4.17;;;;;;;5.24;60.01;99155.94;1701196;83;21558;-76
2022/02/19 10:22:41;;;;;;;8.17;4.23;;;;;;;5.28;60.44;99160.86;1713775;82;21852;-75
2022/02/19 10:25:12;;;;;;;11.73;4.07;;;;;;;5.31;60.21;99163.13;1689219;83;21006;-77
2022/02/19 10:27:45;;;;;;;8.87;3.13;;;;;;;5.33;60.44;99158.47;1701686;83;21086;-79
2022/02/19 10:30:20;;;;;;;8.80;4.47;;;;;;;5.40;60.69;99150.13;1696845;83;21040;-78
2022/02/19 10:33:02;;;;;;;5.00;3.00;;;;;;;5.46;60.49;99153.36;1700836;83;21011;-78
2022/02/19 10:35:32;;;;;;;5.17;3.20;;;;;;;5.55;60.32;99165.47;1687418;83;21144;-80
2022/02/19 10:38:08;;;;;;;7.07;3.10;;;;;;;5.64;59.99;99158.27;1705149;83;21049;-78
2022/02/19 10:40:43;;;;;;;7.00;2.87;;;;;;;5.73;59.62;99157.66;1711125;83;21330;-79
2022/02/19 10:43:19;;;;;;;7.73;3.10;;;;;;;5.82;59.54;99153.88;1708398;83;21600;-78
2022/02/19 10:45:56;;;;;;;4.73;2.67;;;;;;;5.90;59.36;99165.69;1699407;81;21022;-77
2022/02/19 10:48:27;;;;;;;9.13;3.00;;;;;;;6.00;59.24;99169.38;1718047;81;21014;-78
2022/02/19 10:51:15;;;;;;;7.17;3.77;;;;;;;6.07;58.96;99171.59;1716987;81;21260;-77
2022/02/19 10:53:47;;;;;;;3.62;2.80;;;;;;;6.14;59.13;99175.13;1714829;81;21083;-78
2022/02/19 10:56:16;;;;;;;9.27;3.40;;;;;;;6.22;58.98;99175.52;1717798;81;21537;-77
2022/02/19 10:59:01;;;;;;;3.93;3.20;;;;;;;6.29;58.82;99167.14;1710546;83;21061;-75
2022/02/19 11:01:29;;;;;;;4.33;2.30;;;;;;;6.33;58.38;99157.81;1714941;82;21006;-77
2022/02/19 11:03:55;;;;;;;7.43;3.70;;;;;;;6.36;58.34;99164.54;1708384;82;20996;-78
2022/02/19 11:06:22;;;;;;;4.72;3.50;;;;;;;6.37;58.49;99160.39;1713929;82;21006;-75
2022/02/19 11:08:50;;;;;;;3.97;3.60;;;;;;;6.42;58.19;99161.13;1720166;82;21578;-77
2022/02/19 11:11:16;;;;;;;5.10;3.70;;;;;;;6.40;58.10;99146.78;1716459;82;21044;-78
2022/02/19 11:13:44;;;;;;;6.07;3.67;;;;;;;6.45;58.25;99154.14;1722950;82;21081;-78
2022/02/19 11:16:11;;;;;;;6.57;3.40;;;;;;;6.43;58.28;99147.70;1713995;82;21054;-75
2022/02/19 11:18:38;;;;;;;5.97;3.40;;;;;;;6.43;58.21;99130.50;1708741;82;21023;-78
2022/02/19 11:21:05;;;;;;;5.22;3.02;;;;;;;6.50;58.28;99158.84;1709312;82;21134;-73
2022/02/19 11:23:34;;;;;;;18.43;3.90;;;;;;;6.53;58.40;99156.64;1704060;82;21031;-78
2022/02/19 11:26:03;;;;;;;7.00;3.50;;;;;;;6.58;58.04;99148.14;1694955;83;21030;-77
2022/02/19 11:28:35;;;;;;;4.90;2.93;;;;;;;6.64;57.96;99153.98;1712711;83;21531;-69
2022/02/19 11:31:04;;;;;;;5.80;3.50;;;;;;;6.69;58.02;99162.19;1699907;83;21010;-75
2022/02/19 11:33:33;;;;;;;5.33;2.90;;;;;;;6.74;57.65;99149.20;1701161;81;21061;-77
2022/02/19 11:36:03;;;;;;;7.43;3.30;;;;;;;6.80;57.69;99131.71;1708899;83;21562;-77
2022/02/19 11:38:36;;;;;;;5.57;2.87;;;;;;;6.84;57.44;99122.36;1703830;83;21034;-76
2022/02/19 11:41:07;;;;;;;4.97;3.00;;;;;;;6.90;57.64;99116.80;1708892;83;21010;-76
2022/02/19 11:43:40;;;;;;;10.57;3.93;;;;;;;6.95;57.38;99139.53;1716218;83;21078;-75
2022/02/19 11:46:24;;;;;;;5.23;3.57;;;;;;;6.99;57.45;99164.13;1694562;83;21069;-77
2022/02/19 11:48:51;;;;;;;6.03;3.43;;;;;;;6.99;57.05;99143.45;1716194;83;21115;-75
2022/02/19 11:51:28;;;;;;;8.03;3.97;;;;;;;7.02;56.99;99154.45;1696460;83;21042;-75
2022/02/19 11:54:06;;;;;;;8.50;3.83;;;;;;;7.04;57.28;99156.91;1702534;83;21018;-76
2022/02/19 11:56:36;;;;;;;11.07;4.37;;;;;;;7.04;57.05;99131.74;1713625;81;21016;-75
2022/02/19 11:59:06;;;;;;;6.03;4.50;;;;;;;7.04;57.20;99142.85;1714278;83;21058;-75